createdAt,value
2017-10-24T00:00:43.462Z,10.54
2017-10-24T00:01:43.451Z,10.51
2017-10-24T00:02:43.448Z,10.49
2017-10-24T00:03:43.445Z,10.59
2017-10-24T00:04:43.443Z,10.53
2017-10-24T00:05:43.436Z,10.51
2017-10-24T00:06:43.451Z,10.51
2017-10-24T00:07:43.428Z,10.48
2017-10-24T00:08:43.432Z,10.57
2017-10-24T00:09:43.422Z,10.53
2017-10-24T00:10:43.421Z,10.57
2017-10-24T00:11:43.416Z,10.61
2017-10-24T00:12:43.412Z,10.61
2017-10-24T00:13:43.411Z,10.60
2017-10-24T00:14:43.409Z,10.61
2017-10-24T00:15:43.403Z,10.57
2017-10-24T00:16:43.397Z,10.59
2017-10-24T00:17:43.400Z,10.61
2017-10-24T00:18:43.392Z,10.59
2017-10-24T00:19:43.389Z,10.51
2017-10-24T00:20:43.386Z,10.51
2017-10-24T00:21:43.381Z,10.54
2017-10-24T00:22:43.378Z,10.48
2017-10-24T00:23:43.372Z,10.54
2017-10-24T00:24:43.369Z,10.49
2017-10-24T00:25:43.368Z,10.56
2017-10-24T00:26:43.369Z,10.48
2017-10-24T00:27:43.367Z,10.56
2017-10-24T00:28:43.357Z,10.57
2017-10-24T00:29:43.350Z,10.61
2017-10-24T00:30:43.352Z,10.57
2017-10-24T00:31:43.344Z,10.48
2017-10-24T00:32:43.343Z,10.51
2017-10-24T00:33:43.334Z,10.56
2017-10-24T00:34:43.333Z,10.56
2017-10-24T00:35:43.337Z,10.57
2017-10-24T00:36:43.344Z,10.51
2017-10-24T00:37:43.320Z,10.53
2017-10-24T00:38:43.323Z,10.54
2017-10-24T00:39:43.318Z,10.56
2017-10-24T00:40:43.321Z,10.60
2017-10-24T00:41:43.314Z,10.60
2017-10-24T00:42:43.307Z,10.60
2017-10-24T00:43:43.309Z,10.63
2017-10-24T00:44:43.302Z,10.59
2017-10-24T00:45:43.298Z,10.57
2017-10-24T00:46:43.289Z,10.61
2017-10-24T00:47:43.286Z,10.60
2017-10-24T00:48:43.285Z,10.61
2017-10-24T00:49:43.284Z,10.64
2017-10-24T00:50:43.282Z,10.61
2017-10-24T00:51:43.276Z,10.57
2017-10-24T00:52:43.274Z,10.59
2017-10-24T00:53:43.264Z,10.67
2017-10-24T00:54:43.265Z,10.57
2017-10-24T00:55:43.261Z,10.57
2017-10-24T00:56:43.258Z,10.59
2017-10-24T00:57:43.253Z,10.63
2017-10-24T00:58:43.253Z,10.59
2017-10-24T00:59:43.246Z,10.63
2017-10-24T01:00:43.241Z,10.71
2017-10-24T01:01:43.241Z,10.67
2017-10-24T01:02:43.235Z,10.63
2017-10-24T01:03:43.230Z,10.61
2017-10-24T01:04:43.225Z,10.61
2017-10-24T01:05:43.222Z,10.64
2017-10-24T01:06:43.216Z,10.63
2017-10-24T01:07:43.214Z,10.64
2017-10-24T01:08:43.218Z,10.63
2017-10-24T01:09:43.209Z,10.63
2017-10-24T01:10:43.206Z,10.69
2017-10-24T01:11:43.206Z,10.63
2017-10-24T01:12:43.200Z,10.54
2017-10-24T01:13:43.193Z,10.59
2017-10-24T01:14:43.192Z,10.67
2017-10-24T01:15:43.189Z,10.60
2017-10-24T01:16:43.183Z,10.63
2017-10-24T01:17:43.181Z,10.64
2017-10-24T01:18:43.183Z,10.60
2017-10-24T01:19:43.176Z,10.63
2017-10-24T01:20:43.171Z,10.64
2017-10-24T01:21:43.173Z,10.59
2017-10-24T01:22:43.163Z,10.67
2017-10-24T01:23:43.158Z,10.69
2017-10-24T01:24:43.155Z,10.64
2017-10-24T01:25:43.152Z,10.64
2017-10-24T01:26:43.148Z,10.61
2017-10-24T01:27:43.156Z,10.67
2017-10-24T01:28:43.140Z,10.61
2017-10-24T01:29:43.136Z,10.67
2017-10-24T01:30:43.133Z,10.69
2017-10-24T01:31:43.128Z,10.64
2017-10-24T01:32:43.120Z,10.68
2017-10-24T01:33:43.123Z,10.71
2017-10-24T01:34:43.118Z,10.61
2017-10-24T01:35:43.114Z,10.61
2017-10-24T01:36:43.109Z,10.60
2017-10-24T01:37:43.108Z,10.71
2017-10-24T01:38:43.103Z,10.75
2017-10-24T01:39:43.100Z,10.68
2017-10-24T01:40:43.097Z,10.72
2017-10-24T01:41:43.095Z,10.72
2017-10-24T01:42:43.090Z,10.74
2017-10-24T01:43:43.083Z,10.76
2017-10-24T01:44:43.084Z,10.60
2017-10-24T01:45:43.080Z,10.78
2017-10-24T01:46:43.073Z,10.76
2017-10-24T01:47:43.073Z,10.61
2017-10-24T01:48:43.069Z,10.72
2017-10-24T01:49:43.065Z,10.74
2017-10-24T01:50:43.059Z,10.74
2017-10-24T01:51:43.059Z,10.64
2017-10-24T01:52:43.049Z,10.68
2017-10-24T01:53:43.052Z,10.63
2017-10-24T01:54:43.047Z,10.63
2017-10-24T01:55:43.041Z,10.61
2017-10-24T01:56:43.040Z,10.74
2017-10-24T01:57:43.038Z,10.75
2017-10-24T01:58:43.031Z,10.57
2017-10-24T01:59:43.030Z,10.71
2017-10-24T02:00:43.025Z,10.61
2017-10-24T02:01:43.024Z,10.64
2017-10-24T02:02:43.019Z,10.63
2017-10-24T02:03:43.013Z,10.71
2017-10-24T02:04:43.010Z,10.74
2017-10-24T02:05:43.005Z,10.68
2017-10-24T02:06:43.004Z,10.59
2017-10-24T02:07:43.000Z,10.64
2017-10-24T02:08:42.998Z,10.75
2017-10-24T02:09:42.992Z,10.69
2017-10-24T02:10:42.987Z,10.74
2017-10-24T02:11:42.993Z,10.72
2017-10-24T02:12:42.984Z,10.72
2017-10-24T02:13:42.979Z,10.78
2017-10-24T02:14:42.981Z,10.76
2017-10-24T02:15:42.971Z,10.69
2017-10-24T02:16:42.967Z,10.67
2017-10-24T02:17:42.972Z,10.69
2017-10-24T02:18:42.960Z,10.74
2017-10-24T02:19:42.954Z,10.75
2017-10-24T02:20:42.964Z,10.76
2017-10-24T02:21:42.956Z,10.75
2017-10-24T02:22:42.947Z,10.82
2017-10-24T02:23:42.943Z,10.90
2017-10-24T02:24:42.944Z,10.72
2017-10-24T02:25:42.936Z,10.76
2017-10-24T02:26:42.933Z,10.74
2017-10-24T02:27:42.930Z,10.79
2017-10-24T02:28:42.924Z,10.79
2017-10-24T02:29:42.921Z,10.74
2017-10-24T02:30:42.921Z,10.75
2017-10-24T02:31:42.920Z,10.74
2017-10-24T02:32:42.911Z,10.81
2017-10-24T02:33:42.908Z,10.86
2017-10-24T02:34:42.905Z,10.76
2017-10-24T02:35:42.900Z,10.81
2017-10-24T02:36:42.900Z,10.79
2017-10-24T02:37:42.895Z,10.78
2017-10-24T02:38:42.895Z,10.78
2017-10-24T02:39:42.890Z,10.79
2017-10-24T02:40:42.887Z,10.75
2017-10-24T02:41:42.884Z,10.74
2017-10-24T02:42:42.876Z,10.72
2017-10-24T02:43:42.873Z,10.75
2017-10-24T02:44:42.874Z,10.84
2017-10-24T02:45:42.869Z,10.76
2017-10-24T02:46:42.862Z,10.74
2017-10-24T02:47:42.860Z,10.76
2017-10-24T02:48:42.857Z,10.81
2017-10-24T02:49:42.865Z,10.84
2017-10-24T02:50:42.851Z,10.82
2017-10-24T02:51:42.850Z,10.81
2017-10-24T02:52:42.843Z,10.89
2017-10-24T02:53:42.844Z,10.76
2017-10-24T02:54:42.845Z,10.81
2017-10-24T02:55:42.834Z,10.78
2017-10-24T02:56:42.832Z,10.87
2017-10-24T02:57:42.827Z,10.81
2017-10-24T02:58:42.828Z,10.87
2017-10-24T02:59:42.821Z,10.87
2017-10-24T03:00:42.816Z,10.87
2017-10-24T03:01:42.816Z,10.82
2017-10-24T03:02:42.806Z,10.89
2017-10-24T03:03:42.805Z,10.84
2017-10-24T03:04:42.803Z,10.78
2017-10-24T03:05:42.813Z,10.81
2017-10-24T03:06:42.797Z,10.81
2017-10-24T03:07:42.809Z,10.86
2017-10-24T03:08:42.788Z,10.76
2017-10-24T03:09:42.783Z,10.82
2017-10-24T03:10:42.783Z,10.87
2017-10-24T03:11:42.779Z,10.81
2017-10-24T03:12:42.777Z,10.78
2017-10-24T03:13:42.772Z,10.76
2017-10-24T03:14:42.769Z,10.86
2017-10-24T03:15:42.766Z,10.82
2017-10-24T03:16:42.762Z,10.78
2017-10-24T03:17:42.754Z,10.76
2017-10-24T03:18:42.760Z,10.86
2017-10-24T03:19:42.755Z,10.82
2017-10-24T03:20:42.757Z,10.87
2017-10-24T03:21:42.746Z,10.79
2017-10-24T03:22:42.744Z,10.81
2017-10-24T03:23:42.737Z,10.81
2017-10-24T03:24:42.735Z,10.86
2017-10-24T03:25:42.732Z,10.89
2017-10-24T03:26:42.729Z,10.90
2017-10-24T03:27:42.723Z,10.87
2017-10-24T03:28:42.729Z,10.89
2017-10-24T03:29:42.718Z,10.87
2017-10-24T03:30:42.716Z,10.84
2017-10-24T03:31:42.712Z,10.84
2017-10-24T03:32:42.709Z,10.86
2017-10-24T03:33:42.705Z,10.84
2017-10-24T03:34:42.701Z,10.87
2017-10-24T03:35:42.698Z,10.89
2017-10-24T03:36:42.700Z,10.93
2017-10-24T03:37:42.691Z,10.87
2017-10-24T03:38:42.690Z,10.90
2017-10-24T03:39:42.684Z,10.89
2017-10-24T03:40:42.675Z,10.82
2017-10-24T03:41:42.679Z,10.82
2017-10-24T03:42:42.674Z,10.90
2017-10-24T03:43:42.671Z,10.82
2017-10-24T03:44:42.669Z,10.86
2017-10-24T03:45:42.664Z,10.90
2017-10-24T03:46:42.666Z,10.84
2017-10-24T03:47:42.658Z,10.96
2017-10-24T03:48:42.655Z,10.86
2017-10-24T03:49:42.652Z,10.96
2017-10-24T03:50:42.648Z,10.92
2017-10-24T03:51:42.646Z,11.07
2017-10-24T03:52:42.638Z,11.05
2017-10-24T03:53:42.641Z,10.99
2017-10-24T03:54:42.636Z,11.02
2017-10-24T03:55:42.635Z,10.93
2017-10-24T03:56:42.623Z,10.96
2017-10-24T03:57:42.624Z,10.92
2017-10-24T03:58:42.623Z,10.97
2017-10-24T03:59:42.614Z,10.90
2017-10-24T04:00:42.619Z,10.90
2017-10-24T04:01:42.613Z,10.89
2017-10-24T04:02:42.611Z,10.96
2017-10-24T04:03:42.608Z,10.93
2017-10-24T04:04:42.603Z,10.93
2017-10-24T04:05:42.600Z,10.94
2017-10-24T04:06:42.599Z,10.93
2017-10-24T04:07:42.593Z,10.93
2017-10-24T04:08:42.592Z,10.86
2017-10-24T04:09:42.588Z,10.89
2017-10-24T04:10:42.590Z,10.82
2017-10-24T04:11:42.583Z,10.86
2017-10-24T04:12:42.576Z,10.90
2017-10-24T04:13:42.575Z,10.86
2017-10-24T04:14:42.572Z,10.89
2017-10-24T04:15:42.568Z,10.84
2017-10-24T04:16:42.563Z,10.84
2017-10-24T04:17:42.562Z,10.87
2017-10-24T04:18:42.559Z,10.87
2017-10-24T04:19:42.556Z,10.90
2017-10-24T04:20:42.555Z,10.87
2017-10-24T04:21:42.549Z,10.87
2017-10-24T04:22:42.548Z,10.89
2017-10-24T04:23:42.543Z,10.86
2017-10-24T04:24:42.536Z,10.84
2017-10-24T04:25:42.541Z,10.86
2017-10-24T04:26:42.533Z,10.81
2017-10-24T04:27:42.529Z,10.82
2017-10-24T04:28:42.530Z,10.86
2017-10-24T04:29:42.524Z,10.92
2017-10-24T04:30:42.521Z,10.89
2017-10-24T04:31:42.517Z,10.90
2017-10-24T04:32:42.512Z,10.87
2017-10-24T04:33:42.510Z,10.90
2017-10-24T04:34:42.508Z,10.89
2017-10-24T04:35:42.503Z,10.90
2017-10-24T04:36:42.498Z,10.84
2017-10-24T04:37:42.493Z,10.84
2017-10-24T04:38:42.497Z,10.93
2017-10-24T04:39:42.490Z,10.87
2017-10-24T04:40:42.489Z,10.79
2017-10-24T04:41:42.484Z,10.81
2017-10-24T04:42:42.480Z,10.82
2017-10-24T04:43:42.472Z,10.78
2017-10-24T04:44:42.471Z,10.82
2017-10-24T04:45:42.470Z,10.86
2017-10-24T04:46:42.470Z,10.89
2017-10-24T04:47:42.468Z,10.87
2017-10-24T04:48:42.460Z,10.87
2017-10-24T04:49:42.456Z,10.81
2017-10-24T04:50:42.458Z,10.82
2017-10-24T04:51:42.453Z,10.79
2017-10-24T04:52:42.450Z,10.81
2017-10-24T04:53:42.444Z,10.79
2017-10-24T04:54:42.440Z,10.87
2017-10-24T04:55:42.437Z,10.87
2017-10-24T04:56:42.436Z,10.87
2017-10-24T04:57:42.435Z,10.86
2017-10-24T04:58:42.430Z,10.89
2017-10-24T04:59:42.426Z,10.82
2017-10-24T05:00:42.425Z,10.87
2017-10-24T05:01:42.445Z,10.93
2017-10-24T05:02:42.414Z,10.86
2017-10-24T05:03:42.409Z,10.90
2017-10-24T05:04:42.408Z,10.93
2017-10-24T05:05:42.409Z,10.87
2017-10-24T05:06:42.403Z,10.89
2017-10-24T05:07:42.400Z,10.89
2017-10-24T05:08:42.400Z,10.82
2017-10-24T05:09:42.392Z,10.86
2017-10-24T05:10:42.390Z,10.93
2017-10-24T05:11:42.389Z,10.86
2017-10-24T05:12:42.380Z,10.89
2017-10-24T05:13:42.379Z,10.89
2017-10-24T05:14:42.377Z,10.89
2017-10-24T05:15:42.372Z,10.89
2017-10-24T05:16:42.373Z,10.93
2017-10-24T05:17:42.366Z,10.86
2017-10-24T05:18:42.364Z,10.82
2017-10-24T05:19:42.359Z,10.93
2017-10-24T05:20:42.353Z,10.87
2017-10-24T05:21:42.355Z,10.93
2017-10-24T05:22:42.349Z,10.87
2017-10-24T05:23:42.347Z,10.82
2017-10-24T05:24:42.344Z,10.79
2017-10-24T05:25:42.339Z,10.79
2017-10-24T05:26:42.346Z,10.78
2017-10-24T05:27:42.333Z,10.87
2017-10-24T05:28:42.329Z,10.76
2017-10-24T05:29:42.326Z,10.86
2017-10-24T05:30:42.327Z,10.87
2017-10-24T05:31:42.333Z,10.82
2017-10-24T05:32:42.316Z,10.79
2017-10-24T05:33:42.315Z,10.93
2017-10-24T05:34:42.311Z,10.82
2017-10-24T05:35:42.306Z,10.78
2017-10-24T05:36:42.315Z,10.92
2017-10-24T05:37:42.302Z,10.93
2017-10-24T05:38:42.297Z,10.90
2017-10-24T05:39:42.292Z,10.89
2017-10-24T05:40:42.286Z,10.90
2017-10-24T05:41:42.289Z,10.90
2017-10-24T05:42:42.283Z,10.93
2017-10-24T05:43:42.277Z,10.87
2017-10-24T05:44:42.276Z,10.89
2017-10-24T05:45:42.283Z,10.87
2017-10-24T05:46:42.270Z,10.90
2017-10-24T05:47:42.267Z,10.86
2017-10-24T05:48:42.269Z,10.90
2017-10-24T05:49:42.260Z,10.92
2017-10-24T05:50:42.257Z,10.89
2017-10-24T05:51:42.250Z,10.84
2017-10-24T05:52:42.252Z,10.90
2017-10-24T05:53:42.244Z,10.86
2017-10-24T05:54:42.244Z,10.82
2017-10-24T05:55:42.238Z,10.90
2017-10-24T05:56:42.236Z,10.92
2017-10-24T05:57:42.231Z,10.93
2017-10-24T05:58:42.232Z,10.94
2017-10-24T05:59:42.238Z,10.92
2017-10-24T06:00:42.222Z,10.89
2017-10-24T06:01:42.218Z,10.93
2017-10-24T06:02:42.215Z,10.94
2017-10-24T06:03:42.211Z,10.96
2017-10-24T06:04:42.211Z,10.89
2017-10-24T06:05:42.210Z,10.94
2017-10-24T06:06:42.198Z,10.93
2017-10-24T06:07:42.199Z,10.90
2017-10-24T06:08:42.198Z,10.99
2017-10-24T06:09:42.192Z,11.02
2017-10-24T06:10:42.191Z,11.05
2017-10-24T06:11:42.191Z,11.04
2017-10-24T06:12:42.186Z,11.04
2017-10-24T06:13:42.183Z,11.02
2017-10-24T06:14:42.180Z,11.08
2017-10-24T06:15:42.173Z,11.12
2017-10-24T06:16:42.169Z,11.15
2017-10-24T06:17:42.168Z,11.14
2017-10-24T06:18:42.165Z,11.11
2017-10-24T06:19:42.159Z,11.17
2017-10-24T06:20:42.162Z,11.18
2017-10-24T06:21:42.152Z,11.11
2017-10-24T06:22:42.153Z,11.19
2017-10-24T06:23:42.147Z,11.22
2017-10-24T06:24:42.148Z,11.19
2017-10-24T06:25:42.143Z,11.17
2017-10-24T06:26:42.139Z,11.17
2017-10-24T06:27:42.134Z,11.22
2017-10-24T06:28:42.132Z,11.26
2017-10-24T06:29:42.136Z,11.27
2017-10-24T06:30:42.127Z,11.35
2017-10-24T06:31:42.129Z,11.29
2017-10-24T06:32:42.122Z,11.40
2017-10-24T06:33:42.121Z,11.33
2017-10-24T06:34:42.114Z,11.36
2017-10-24T06:35:42.108Z,11.44
2017-10-24T06:36:42.108Z,11.37
2017-10-24T06:37:42.104Z,11.45
2017-10-24T06:38:42.101Z,11.44
2017-10-24T06:39:42.099Z,11.44
2017-10-24T06:40:42.097Z,11.44
2017-10-24T06:41:42.093Z,11.50
2017-10-24T06:42:42.093Z,11.55
2017-10-24T06:43:42.088Z,11.60
2017-10-24T06:44:42.085Z,11.54
2017-10-24T06:45:42.083Z,11.51
2017-10-24T06:46:42.081Z,11.59
2017-10-24T06:47:42.077Z,11.60
2017-10-24T06:48:42.072Z,11.66
2017-10-24T06:49:42.072Z,11.70
2017-10-24T06:50:42.067Z,11.62
2017-10-24T06:51:42.065Z,11.62
2017-10-24T06:52:42.064Z,11.62
2017-10-24T06:53:42.071Z,11.59
2017-10-24T06:54:42.057Z,11.63
2017-10-24T06:55:42.052Z,11.73
2017-10-24T06:56:42.053Z,11.65
2017-10-24T06:57:42.047Z,11.66
2017-10-24T06:58:42.040Z,11.66
2017-10-24T06:59:42.040Z,11.70
2017-10-24T07:00:42.034Z,11.73
2017-10-24T07:01:42.036Z,11.69
2017-10-24T07:02:42.037Z,11.73
2017-10-24T07:03:42.033Z,11.78
2017-10-24T07:04:42.036Z,11.69
2017-10-24T07:05:42.029Z,11.73
2017-10-24T07:06:42.021Z,11.69
2017-10-24T07:07:42.021Z,11.81
2017-10-24T07:08:42.017Z,11.80
2017-10-24T07:09:42.018Z,11.72
2017-10-24T07:10:42.015Z,11.80
2017-10-24T07:11:42.012Z,11.70
2017-10-24T07:12:42.012Z,11.86
2017-10-24T07:13:42.012Z,11.84
2017-10-24T07:14:42.002Z,11.83
2017-10-24T07:15:41.995Z,11.80
2017-10-24T07:16:41.999Z,11.72
2017-10-24T07:17:41.998Z,11.87
2017-10-24T07:18:41.993Z,11.86
2017-10-24T07:19:41.989Z,11.81
2017-10-24T07:20:41.982Z,11.84
2017-10-24T07:21:41.996Z,11.94
2017-10-24T07:22:41.983Z,11.86
2017-10-24T07:23:41.984Z,11.88
2017-10-24T07:24:41.977Z,11.90
2017-10-24T07:25:41.979Z,11.94
2017-10-24T07:26:41.978Z,11.91
2017-10-24T07:27:41.968Z,11.94
2017-10-24T07:28:41.971Z,11.90
2017-10-24T07:29:41.965Z,12.10
2017-10-24T07:30:41.988Z,12.09
2017-10-24T07:31:41.963Z,12.13
2017-10-24T07:32:41.958Z,12.10
2017-10-24T07:33:41.955Z,12.10
2017-10-24T07:34:42.124Z,12.00
2017-10-24T07:35:41.950Z,12.00
2017-10-24T07:36:41.943Z,12.10
2017-10-24T07:37:41.941Z,12.00
2017-10-24T07:38:41.943Z,12.07
2017-10-24T07:39:41.947Z,12.12
2017-10-24T07:40:41.954Z,12.22
2017-10-24T07:41:41.933Z,12.18
2017-10-24T07:42:41.957Z,12.32
2017-10-24T07:43:41.929Z,12.27
2017-10-24T07:44:41.937Z,12.24
2017-10-24T07:45:41.928Z,12.27
2017-10-24T07:46:41.923Z,12.28
2017-10-24T07:47:41.922Z,12.35
2017-10-24T07:48:41.919Z,12.36
2017-10-24T07:49:41.916Z,12.36
2017-10-24T07:50:41.916Z,12.37
2017-10-24T07:51:41.915Z,12.36
2017-10-24T07:52:41.915Z,12.37
2017-10-24T07:53:41.910Z,12.36
2017-10-24T07:54:41.908Z,12.45
2017-10-24T07:55:41.905Z,12.43
2017-10-24T07:56:41.903Z,12.47
2017-10-24T07:57:41.899Z,12.35
2017-10-24T07:58:41.972Z,12.46
2017-10-24T07:59:41.902Z,12.46
2017-10-24T08:00:41.894Z,12.47
2017-10-24T08:01:41.893Z,12.43
2017-10-24T08:02:41.894Z,12.57
2017-10-24T08:03:41.889Z,12.62
2017-10-24T08:04:41.885Z,12.73
2017-10-24T08:05:41.885Z,12.73
2017-10-24T08:06:41.883Z,12.64
2017-10-24T08:07:41.875Z,12.68
2017-10-24T08:08:41.879Z,12.61
2017-10-24T08:09:41.877Z,12.67
2017-10-24T08:10:41.871Z,12.72
2017-10-24T08:11:41.873Z,12.78
2017-10-24T08:12:41.874Z,12.86
2017-10-24T08:13:41.869Z,12.87
2017-10-24T08:14:41.865Z,12.90
2017-10-24T08:15:41.862Z,12.83
2017-10-24T08:16:41.864Z,12.91
2017-10-24T08:17:41.862Z,12.87
2017-10-24T08:18:41.865Z,12.87
2017-10-24T08:19:41.858Z,12.93
2017-10-24T08:20:41.856Z,12.87
2017-10-24T08:21:41.853Z,12.80
2017-10-24T08:22:41.856Z,12.82
2017-10-24T08:23:41.851Z,12.86
2017-10-24T08:24:41.846Z,12.85
2017-10-24T08:25:41.847Z,12.93
2017-10-24T08:26:41.862Z,12.90
2017-10-24T08:27:41.844Z,12.91
2017-10-24T08:28:41.842Z,12.79
2017-10-24T08:29:41.841Z,12.86
2017-10-24T08:30:41.837Z,12.80
2017-10-24T08:31:41.836Z,12.70
2017-10-24T08:32:41.836Z,12.73
2017-10-24T08:33:41.836Z,12.68
2017-10-24T08:34:41.834Z,12.65
2017-10-24T08:35:41.829Z,12.58
2017-10-24T08:36:41.826Z,12.58
2017-10-24T08:37:41.826Z,12.58
2017-10-24T08:38:41.823Z,12.60
2017-10-24T08:39:41.819Z,12.61
2017-10-24T08:40:41.819Z,12.58
2017-10-24T08:41:41.823Z,12.62
2017-10-24T08:42:41.825Z,12.73
2017-10-24T08:43:41.816Z,12.78
2017-10-24T08:44:41.812Z,12.90
2017-10-24T08:45:41.811Z,12.91
2017-10-24T08:46:41.807Z,12.94
2017-10-24T08:47:41.807Z,13.03
2017-10-24T08:48:41.798Z,13.16
2017-10-24T08:49:41.800Z,13.15
2017-10-24T08:50:41.802Z,13.25
2017-10-24T08:51:41.799Z,13.28
2017-10-24T08:52:41.800Z,13.35
2017-10-24T08:53:41.799Z,13.35
2017-10-24T08:54:41.795Z,13.27
2017-10-24T08:55:41.788Z,13.33
2017-10-24T08:56:41.781Z,13.16
2017-10-24T08:57:41.785Z,13.19
2017-10-24T08:58:41.785Z,13.49
2017-10-24T08:59:41.782Z,13.57
2017-10-24T09:00:41.779Z,13.74
2017-10-24T09:01:41.778Z,13.81
2017-10-24T09:02:41.780Z,13.79
2017-10-24T09:03:41.775Z,13.78
2017-10-24T09:04:41.773Z,13.71
2017-10-24T09:05:41.779Z,13.81
2017-10-24T09:06:41.767Z,13.77
2017-10-24T09:07:41.770Z,13.96
2017-10-24T09:08:41.767Z,14.03
2017-10-24T09:09:41.769Z,13.96
2017-10-24T09:10:41.766Z,13.95
2017-10-24T09:11:41.762Z,14.11
2017-10-24T09:12:41.763Z,14.08
2017-10-24T09:13:41.760Z,14.10
2017-10-24T09:14:41.760Z,14.12
2017-10-24T09:15:41.761Z,14.14
2017-10-24T09:16:41.782Z,14.15
2017-10-24T09:17:41.766Z,14.30
2017-10-24T09:18:41.755Z,14.33
2017-10-24T09:19:41.750Z,14.44
2017-10-24T09:20:41.753Z,14.51
2017-10-24T09:21:41.752Z,14.68
2017-10-24T09:22:41.754Z,14.54
2017-10-24T09:23:41.756Z,14.44
2017-10-24T09:24:41.756Z,14.60
2017-10-24T09:25:41.749Z,14.51
2017-10-24T09:26:41.748Z,14.47
2017-10-24T09:27:41.744Z,14.44
2017-10-24T09:28:41.746Z,14.50
2017-10-24T09:29:41.747Z,14.50
2017-10-24T09:30:41.749Z,14.54
2017-10-24T09:31:41.742Z,14.50
2017-10-24T09:32:41.748Z,14.58
2017-10-24T09:33:41.747Z,14.45
2017-10-24T09:34:41.742Z,14.50
2017-10-24T09:35:41.744Z,14.58
2017-10-24T09:36:41.751Z,14.65
2017-10-24T09:37:41.742Z,14.77
2017-10-24T09:38:41.746Z,14.70
2017-10-24T09:39:41.739Z,14.81
2017-10-24T09:40:41.740Z,14.84
2017-10-24T09:41:41.743Z,14.70
2017-10-24T09:42:41.744Z,14.66
2017-10-24T09:43:41.739Z,14.63
2017-10-24T09:44:41.757Z,14.73
2017-10-24T09:45:41.737Z,14.69
2017-10-24T09:46:41.739Z,14.86
2017-10-24T09:47:41.738Z,14.78
2017-10-24T09:48:41.744Z,14.85
2017-10-24T09:49:41.740Z,14.77
2017-10-24T09:50:41.739Z,14.68
2017-10-24T09:51:41.737Z,14.78
2017-10-24T09:52:41.740Z,14.72
2017-10-24T09:53:41.738Z,14.78
2017-10-24T09:54:41.742Z,14.79
2017-10-24T09:55:41.739Z,14.70
2017-10-24T09:56:41.735Z,14.68
2017-10-24T09:57:41.739Z,14.65
2017-10-24T09:58:41.736Z,14.59
2017-10-24T09:59:41.745Z,14.63
2017-10-24T10:00:41.762Z,14.60
2017-10-24T10:01:41.740Z,14.65
2017-10-24T10:02:41.743Z,14.78
2017-10-24T10:03:41.736Z,14.77
2017-10-24T10:04:41.738Z,14.85
2017-10-24T10:05:41.739Z,14.99
2017-10-24T10:06:41.737Z,15.14
2017-10-24T10:07:41.737Z,15.06
2017-10-24T10:08:41.740Z,14.99
2017-10-24T10:09:41.740Z,15.00
2017-10-24T10:10:41.752Z,14.85
2017-10-24T10:11:41.749Z,14.70
2017-10-24T10:12:41.740Z,14.77
2017-10-24T10:13:41.740Z,14.53
2017-10-24T10:14:41.740Z,14.68
2017-10-24T10:15:41.736Z,14.69
2017-10-24T10:16:41.738Z,14.77
2017-10-24T10:17:41.735Z,14.77
2017-10-24T10:18:41.740Z,14.73
2017-10-24T10:19:41.743Z,14.78
2017-10-24T10:20:41.736Z,14.78
2017-10-24T10:21:41.738Z,14.86
2017-10-24T10:22:41.741Z,14.97
2017-10-24T10:23:41.738Z,14.82
2017-10-24T10:24:41.730Z,14.86
2017-10-24T10:25:41.738Z,15.00
2017-10-24T10:26:41.736Z,15.09
2017-10-24T10:27:41.737Z,15.22
2017-10-24T10:28:41.741Z,15.35
2017-10-24T10:29:41.750Z,15.40
2017-10-24T10:30:41.737Z,15.33
2017-10-24T10:31:41.734Z,15.31
2017-10-24T10:32:41.738Z,15.21
2017-10-24T10:33:41.734Z,15.29
2017-10-24T10:34:41.740Z,15.42
2017-10-24T10:35:41.736Z,15.35
2017-10-24T10:36:41.739Z,15.31
2017-10-24T10:37:41.739Z,15.29
2017-10-24T10:38:41.741Z,15.24
2017-10-24T10:39:41.740Z,15.31
2017-10-24T10:40:41.739Z,15.37
2017-10-24T10:41:42.035Z,15.47
2017-10-24T10:42:42.012Z,15.52
2017-10-24T10:43:41.742Z,15.64
2017-10-24T10:44:41.751Z,15.47
2017-10-24T10:45:41.757Z,15.44
2017-10-24T10:46:41.742Z,15.58
2017-10-24T10:47:41.743Z,15.61
2017-10-24T10:48:41.742Z,15.46
2017-10-24T10:49:41.743Z,15.47
2017-10-24T10:50:41.751Z,15.47
2017-10-24T10:51:41.743Z,15.37
2017-10-24T10:52:41.748Z,15.43
2017-10-24T10:53:41.744Z,15.54
2017-10-24T10:54:41.745Z,15.57
2017-10-24T10:55:41.742Z,15.67
2017-10-24T10:56:41.756Z,15.76
2017-10-24T10:57:41.747Z,15.76
2017-10-24T10:58:41.748Z,15.67
2017-10-24T10:59:41.748Z,15.70
2017-10-24T11:00:41.749Z,15.70
2017-10-24T11:01:41.750Z,15.72
2017-10-24T11:02:41.750Z,15.82
2017-10-24T11:03:41.755Z,15.86
2017-10-24T11:04:41.750Z,15.82
2017-10-24T11:05:41.767Z,15.82
2017-10-24T11:06:41.752Z,15.82
2017-10-24T11:07:41.751Z,15.76
2017-10-24T11:08:41.755Z,15.80
2017-10-24T11:09:41.757Z,15.80
2017-10-24T11:10:41.756Z,15.68
2017-10-24T11:11:41.754Z,15.76
2017-10-24T11:12:41.769Z,15.82
2017-10-24T11:13:41.760Z,15.91
2017-10-24T11:14:41.758Z,15.97
2017-10-24T11:15:41.755Z,15.80
2017-10-24T11:16:41.761Z,15.82
2017-10-24T11:17:41.762Z,15.76
2017-10-24T11:18:41.762Z,15.84
2017-10-24T11:19:41.760Z,15.79
2017-10-24T11:20:41.763Z,15.80
2017-10-24T11:21:41.765Z,15.88
2017-10-24T11:22:41.808Z,15.83
2017-10-24T11:23:41.772Z,15.82
2017-10-24T11:24:41.770Z,15.88
2017-10-24T11:25:41.785Z,15.84
2017-10-24T11:26:41.789Z,15.84
2017-10-24T11:27:41.777Z,15.77
2017-10-24T11:28:41.772Z,15.79
2017-10-24T11:29:41.775Z,15.72
2017-10-24T11:30:41.775Z,15.68
2017-10-24T11:31:41.776Z,15.79
2017-10-24T11:32:41.776Z,15.88
2017-10-24T11:33:41.773Z,16.01
2017-10-24T11:34:41.782Z,15.95
2017-10-24T11:35:41.797Z,15.94
2017-10-24T11:36:41.780Z,15.97
2017-10-24T11:37:41.798Z,15.91
2017-10-24T11:38:41.782Z,15.90
2017-10-24T11:39:41.785Z,15.84
2017-10-24T11:40:41.784Z,15.84
2017-10-24T11:41:41.785Z,15.88
2017-10-24T11:42:41.792Z,15.80
2017-10-24T11:43:41.789Z,15.94
2017-10-24T11:44:41.789Z,15.82
2017-10-24T11:45:41.790Z,15.83
2017-10-24T11:46:41.792Z,15.77
2017-10-24T11:47:41.792Z,15.68
2017-10-24T11:48:41.797Z,15.82
2017-10-24T11:49:41.794Z,15.79
2017-10-24T11:50:41.792Z,15.95
2017-10-24T11:51:41.796Z,15.97
2017-10-24T11:52:41.804Z,16.02
2017-10-24T11:53:41.794Z,16.01
2017-10-24T11:54:41.797Z,15.91
2017-10-24T11:55:41.800Z,15.86
2017-10-24T11:56:41.799Z,15.79
2017-10-24T11:57:41.796Z,15.79
2017-10-24T11:58:41.801Z,15.67
2017-10-24T11:59:41.808Z,15.72
2017-10-24T12:00:41.802Z,15.70
2017-10-24T12:01:41.798Z,15.73
2017-10-24T12:02:41.808Z,15.59
2017-10-24T12:03:41.808Z,15.72
2017-10-24T12:04:41.806Z,15.67
2017-10-24T12:05:41.810Z,15.68
2017-10-24T12:06:41.808Z,15.59
2017-10-24T12:07:41.809Z,15.54
2017-10-24T12:08:41.812Z,15.58
2017-10-24T12:09:41.812Z,15.65
2017-10-24T12:10:41.811Z,15.54
2017-10-24T12:11:41.822Z,15.55
2017-10-24T12:12:41.821Z,15.52
2017-10-24T12:13:41.814Z,15.52
2017-10-24T12:14:41.813Z,15.55
2017-10-24T12:15:41.814Z,15.43
2017-10-24T12:16:41.814Z,15.47
2017-10-24T12:17:41.815Z,15.39
2017-10-24T12:18:41.817Z,15.25
2017-10-24T12:19:41.822Z,15.28
2017-10-24T12:20:41.819Z,15.09
2017-10-24T12:21:41.837Z,15.09
2017-10-24T12:22:41.821Z,15.07
2017-10-24T12:23:41.817Z,15.06
2017-10-24T12:24:41.814Z,15.07
2017-10-24T12:25:41.825Z,15.11
2017-10-24T12:26:41.823Z,15.17
2017-10-24T12:27:41.820Z,15.22
2017-10-24T12:28:41.821Z,15.19
2017-10-24T12:29:41.818Z,15.18
2017-10-24T12:30:41.819Z,15.21
2017-10-24T12:31:41.819Z,15.11
2017-10-24T12:32:41.820Z,15.07
2017-10-24T12:33:41.821Z,15.02
2017-10-24T12:34:41.821Z,15.03
2017-10-24T12:35:41.822Z,14.89
2017-10-24T12:36:41.818Z,14.79
2017-10-24T12:37:41.819Z,14.86
2017-10-24T12:38:41.819Z,14.86
2017-10-24T12:39:41.817Z,14.96
2017-10-24T12:40:41.820Z,15.00
2017-10-24T12:41:41.819Z,15.10
2017-10-24T12:42:41.823Z,15.14
2017-10-24T12:43:41.819Z,15.15
2017-10-24T12:44:41.819Z,15.11
2017-10-24T12:45:41.819Z,15.11
2017-10-24T12:46:41.818Z,15.11
2017-10-24T12:47:41.821Z,15.15
2017-10-24T12:48:41.827Z,15.17
2017-10-24T12:49:41.830Z,15.14
2017-10-24T12:50:41.815Z,15.14
2017-10-24T12:51:41.819Z,15.22
2017-10-24T12:52:41.814Z,15.10